Des Moines International Airport
Sunday 7:54 PM
Weather Mostly Clear
Temperature 32°
Dew Point 27°
Feels Like 32°
Relative Humidity 82
%
Visibility 10
mi
Pressure 1020.0
mb
Wind Direction None
Wind Speed Calm
Last Hour Precip 0.00
"
KDSM 060154Z 00000KT 10SM FEW250 00/M03 A3012 RMK AO2 SLP208 T00001028 $

Terminal Aerodrome Forecast (TAF)

Beginning Flight Rule Present Weather Sky Cover Ceiling Wind Visibility Wind Shear
2/5/23 5:27 PM
VFR
FEW 25000 25000
ft
>6
sm
0600/0624 VRB04KT P6SM FEW250
2/6/23 3:00 AM
VFR
BKN 15000 15000
ft
ESE (120) 9 >6
sm
FM060900 12008KT P6SM BKN150
2/6/23 9:00 AM
VFR
BKN 15000 15000
ft
SE (130) 16G26 >6
sm
FM061500 13014G23KT P6SM BKN150
2/6/23 12:00 PM
VFR
SCT 3500 BKN 15000 15000
ft
SE (140) 21G35 >6
sm
FM061800 14018G30KT P6SM SCT035 BKN150
2/6/23 3:00 PM
VFR
VCSH BKN 3000 3000
ft
SSE (150) 18G31 >6
sm
FM062100 15016G27KT P6SM VCSH BKN030

Recent Observations

Time Present Weather Temp DP Feels RH% Vsby Pressure Ceiling Direction Speed Gust 1h Precip
7:54PM
VFR
32° 27° 32° 82
%
10
mi
1020.0
mb
None None Calm 0.00"
KDSM 060154Z 00000KT 10SM FEW250 00/M03 A3012 RMK AO2 SLP208 T00001028 $
6:54PM
VFR
34° 28° 31° 78
%
10
mi
1020.0
mb
None N 3
mph
0.00"
KDSM 060054Z 36003KT 10SM FEW250 01/M02 A3012 RMK AO2 SLP209 T00111022 $
5:54PM
VFR
36° 29° 33° 75
%
10
mi
1020.0
mb
None N 3
mph
0.00"
KDSM 052354Z 35003KT 10SM FEW250 02/M02 A3012 RMK AO2 SLP208 T00221017 10056 20022 51011 $
4:54PM
VFR
39° 29° 35° 67
%
10
mi
1019.6
mb
None WNW 6
mph
0.00"
KDSM 052254Z 30005KT 10SM FEW250 04/M02 A3011 RMK AO2 SLP206 T00391017 $
3:54PM
VFR
40° 30° 34° 67
%
10
mi
1019.3
mb
None NW 9
mph
0.00"
KDSM 052154Z 32008KT 10SM FEW250 04/M01 A3010 RMK AO2 SLP201 T00441011 $
2:54PM
VFR
41° 31° 35° 67
%
10
mi
1018.6
mb
None NNW 9
mph
0.00"
KDSM 052054Z 33008KT 10SM FEW250 05/M01 A3008 RMK AO2 SLP196 T00501006 53010 $
1:54PM
VFR
42° 31° 36° 64
%
10
mi
1018.3
mb
None WNW 10
mph
0.00"
KDSM 051954Z 30009KT 10SM FEW250 06/M01 A3007 RMK AO2 SLP190 T00561006 $
12:54PM
VFR
39° 30° 30° 70
%
10
mi
1018.3
mb
None NW 17
mph
24
mph
0.00"
KDSM 051854Z 32015G21KT 10SM FEW250 04/M01 A3007 RMK AO2 SLP189 T00391011 $
11:54AM
VFR
40° 29° 33° 64
%
10
mi
1017.6
mb
None NW 12
mph
0.00"
KDSM 051754Z 32010KT 10SM CLR 04/M02 A3005 RMK AO2 SLP185 4/002 933004 T00441017 10044 21017 51017
10:54AM
VFR
39° 29° 31° 67
%
10
mi
1017.6
mb
None NW 15
mph
0.00"
KDSM 051654Z 32013KT 10SM CLR 04/M02 A3005 RMK AO2 SLP184 T00391017
9:54AM
VFR
39° 28° 31° 64
%
10
mi
1016.9
mb
None NW 13
mph
0.00"
KDSM 051554Z 32011KT 10SM CLR 04/M02 A3003 RMK AO2 SLP174 T00391022
8:54AM
VFR
37° 27° 29° 67
%
10
mi
1015.9
mb
None WNW 12
mph
0.00"
KDSM 051454Z 29010KT 10SM FEW250 03/M03 A3000 RMK AO2 SLP165 T00281028 53018
7:54AM
VFR
33° 26° 25° 75
%
10
mi
1015.2
mb
None W 10
mph
0.00"
KDSM 051354Z 28009KT 10SM FEW220 FEW250 01/M03 A2998 RMK AO2 SLP160 T00061033
6:54AM
VFR
32° 25° 23° 75
%
10
mi
1014.6
mb
None WNW 12
mph
0.00"
KDSM 051254Z 29010KT 10SM FEW250 00/M04 A2996 RMK AO2 SLP152 T00001039
5:54AM
VFR
30° 24° 22° 78
%
10
mi
1014.2
mb
None W 8
mph
0.00"
KDSM 051154Z 27007KT 10SM CLR M01/M04 A2995 RMK AO2 SLP148 4/002 T10111044 10017 21022 53011
4:54AM
VFR
31° 25° 22° 78
%
10
mi
1013.9
mb
None W 10
mph
0.00"
KDSM 051054Z 27009KT 10SM CLR M01/M04 A2994 RMK AO2 SLP144 T10061039
3:54AM
VFR
29° 24° 23° 82
%
10
mi
1013.2
mb
None WSW 6
mph
0.00"
KDSM 050954Z 25005KT 10SM CLR M02/M04 A2992 RMK AO2 SLP138 T10171044
2:54AM
VFR
30° 24° 23° 78
%
10
mi
1013.2
mb
None W 7
mph
0.00"
KDSM 050854Z 28006KT 10SM CLR M01/M04 A2992 RMK AO2 SLP136 T10111044 53007
1:54AM
VFR
32° 25° 24° 75
%
10
mi
1012.9
mb
None WNW 9
mph
0.00"
KDSM 050754Z 30008KT 10SM CLR 00/M04 A2991 RMK AO2 SLP133 T00001039
12:54AM
VFR
33° 26° 24° 75
%
10
mi
1012.2
mb
None WNW 12
mph
0.00"
KDSM 050654Z 29010KT 10SM CLR 01/M03 A2989 RMK AO2 SLP128 T00061033
Click here to show this page without METARs/TAFs included